This is the latest recevied weather packets stored in our database for station/object K9ABJ. If no packets are shown the sender has not sent any weather packets the latest 10 day(s).
| Time | Temp. | Humidity | Pressure | Rain* | Wind** | Luminosity | Snow |
|---|---|---|---|---|---|---|---|
| 1787783567 | 21.67° C | 94% | 1012.4 hPa | 0.51 mm | - | 152 W/m² | - |
| 1787783261 | 21.11° C | 94% | 1012.6 hPa | 7.87 mm | - | 150 W/m² | - |
| 1787782956 | 21.11° C | 93% | 1012.4 hPa | 37.34 mm | - | 157 W/m² | - |
| 1787782656 | 21.67° C | 93% | 1012.7 hPa | 33.02 mm | - | 70 W/m² | - |
| 1787782351 | 23.89° C | 91% | 1012 hPa | 4.83 mm | - | 2 W/m² | - |
| 1787782047 | 24.44° C | 90% | 1011.9 hPa | 2.29 mm | - | 16 W/m² | - |
| 1787781742 | 24.44° C | 89% | 1011.9 hPa | 1.78 mm | - | 32 W/m² | - |
| 1787781439 | 24.44° C | 87% | 1011.9 hPa | 0.51 mm | - | 34 W/m² | - |
| 1787781134 | 25° C | 84% | 1011.8 hPa | 0 mm | - | 31 W/m² | - |
| 1787780833 | 25° C | 82% | 1011.9 hPa | 0 mm | - | 26 W/m² | - |
| 1787780532 | 25.56° C | 80% | 1011.9 hPa | 0 mm | - | 33 W/m² | - |
| 1787780228 | 25.56° C | 79% | 1011.8 hPa | 0 mm | - | 44 W/m² | - |
| 1787779924 | 25.56° C | 79% | 1012.1 hPa | 0 mm | - | 50 W/m² | - |
| 1787779623 | 25.56° C | 78% | 1012.3 hPa | 0 mm | - | 48 W/m² | - |
| 1787779318 | 26.11° C | 77% | 1012.2 hPa | 0 mm | - | 64 W/m² | - |
| 1787779017 | 26.67° C | 75% | 1012.3 hPa | 0 mm | - | 86 W/m² | - |
| 1787778713 | 26.11° C | 76% | 1011.7 hPa | 0 mm | - | 160 W/m² | - |
| 1787778409 | 26.11° C | 77% | 1011.8 hPa | 0 mm | - | 99 W/m² | - |
| 1787778104 | 26.11° C | 77% | 1011.7 hPa | 0 mm | - | 98 W/m² | - |
| 1787777804 | 26.11° C | 76% | 1011.8 hPa | 0 mm | - | 92 W/m² | - |
| 1787777501 | 26.11° C | 76% | 1011.7 hPa | 0 mm | - | 78 W/m² | - |
| 1787777201 | 26.11° C | 76% | 1011.6 hPa | 0 mm | - | 83 W/m² | - |
| 1787776900 | 26.11° C | 75% | 1011.8 hPa | 0 mm | - | 92 W/m² | - |
| 1787776599 | 26.11° C | 75% | 1011.7 hPa | 0 mm | - | 92 W/m² | - |
| 1787776298 | 26.11° C | 75% | 1011.8 hPa | 0 mm | - | 105 W/m² | - |
* Rain latest hour (hover to see other rain measurements)
** Current wind speed in m/s (hover to see current wind gust speed)